createdAt,value
2019-02-06T00:01:26.034Z,86.00
2019-02-06T00:03:59.330Z,86.00
2019-02-06T00:06:32.521Z,86.00
2019-02-06T00:09:12.837Z,86.00
2019-02-06T00:11:44.346Z,86.00
2019-02-06T00:14:16.036Z,86.00
2019-02-06T00:16:47.539Z,86.00
2019-02-06T00:19:18.802Z,86.00
2019-02-06T00:21:50.174Z,86.10
2019-02-06T00:24:21.515Z,86.10
2019-02-06T00:26:54.812Z,86.00
2019-02-06T00:29:26.269Z,86.10
2019-02-06T00:31:59.437Z,86.00
2019-02-06T00:34:31.952Z,86.00
2019-02-06T00:37:10.269Z,85.90
2019-02-06T00:39:41.732Z,86.00
2019-02-06T00:42:44.300Z,85.90
2019-02-06T00:44:58.919Z,85.90
2019-02-06T00:47:30.477Z,85.90
2019-02-06T00:50:12.079Z,85.90
2019-02-06T00:52:44.425Z,85.90
2019-02-06T00:55:21.611Z,85.90
2019-02-06T00:57:53.025Z,85.90
2019-02-06T01:00:24.494Z,85.90
2019-02-06T01:02:57.288Z,85.80
2019-02-06T01:05:42.840Z,85.90
2019-02-06T01:08:20.429Z,85.80
2019-02-06T01:10:56.849Z,85.80
2019-02-06T01:13:31.597Z,85.80
2019-02-06T01:16:09.748Z,85.70
2019-02-06T01:18:48.326Z,85.80
2019-02-06T01:21:19.693Z,85.80
2019-02-06T01:23:51.244Z,85.80
2019-02-06T01:26:31.371Z,85.80
2019-02-06T01:29:26.451Z,85.80
2019-02-06T01:32:03.810Z,85.90
2019-02-06T01:34:39.132Z,85.80
2019-02-06T01:37:13.354Z,85.80
2019-02-06T01:39:51.361Z,85.80
2019-02-06T01:42:22.749Z,85.80
2019-02-06T01:44:54.814Z,85.70
2019-02-06T01:47:26.069Z,85.80
2019-02-06T01:49:59.132Z,85.80
2019-02-06T01:52:31.387Z,85.90
2019-02-06T01:55:03.440Z,85.80
2019-02-06T01:57:34.982Z,85.90
2019-02-06T02:00:17.883Z,85.90
2019-02-06T02:02:49.271Z,85.90
2019-02-06T02:05:22.222Z,86.00
2019-02-06T02:07:59.794Z,86.10
2019-02-06T02:10:31.984Z,86.10
2019-02-06T02:13:03.960Z,86.10
2019-02-06T02:15:35.748Z,86.10
2019-02-06T02:18:07.119Z,86.00
2019-02-06T02:20:38.768Z,86.00
2019-02-06T02:23:10.611Z,86.00
2019-02-06T02:25:42.109Z,86.10
2019-02-06T02:28:13.848Z,86.10
2019-02-06T02:30:51.510Z,86.10
2019-02-06T02:33:24.638Z,86.10
2019-02-06T02:35:56.069Z,86.10
2019-02-06T02:38:27.878Z,86.10
2019-02-06T02:41:21.912Z,86.10
2019-02-06T02:43:54.779Z,86.10
2019-02-06T02:46:26.169Z,86.00
2019-02-06T02:48:59.972Z,86.00
2019-02-06T02:51:31.403Z,85.90
2019-02-06T02:54:02.639Z,85.90
2019-02-06T02:56:35.701Z,85.90
2019-02-06T02:59:06.944Z,86.00
2019-02-06T03:02:10.411Z,86.00
2019-02-06T03:04:49.603Z,86.00
2019-02-06T03:07:30.737Z,86.00
2019-02-06T03:10:32.334Z,86.00
2019-02-06T03:13:29.841Z,86.00
2019-02-06T03:16:05.038Z,86.00
2019-02-06T03:18:42.262Z,86.00
2019-02-06T03:21:13.730Z,86.00
2019-02-06T03:23:45.056Z,86.10
2019-02-06T03:26:16.434Z,86.10
2019-02-06T03:28:48.908Z,86.10
2019-02-06T03:31:20.617Z,86.10
2019-02-06T03:33:52.038Z,86.10
2019-02-06T03:36:23.720Z,86.10
2019-02-06T03:39:24.137Z,86.20
2019-02-06T03:42:03.763Z,86.10
2019-02-06T03:44:35.344Z,86.10
2019-02-06T03:47:06.718Z,86.20
2019-02-06T03:49:38.046Z,86.20
2019-02-06T03:52:24.309Z,86.20
2019-02-06T03:54:58.814Z,86.20
2019-02-06T03:57:30.206Z,86.20
2019-02-06T04:00:01.537Z,86.20
2019-02-06T04:02:34.767Z,86.10
2019-02-06T04:05:06.704Z,86.20
2019-02-06T04:07:39.533Z,86.10
2019-02-06T04:10:14.331Z,86.10
2019-02-06T04:12:45.997Z,86.10
2019-02-06T04:15:18.093Z,86.10
2019-02-06T04:17:50.287Z,86.20
2019-02-06T04:20:21.598Z,86.20
2019-02-06T04:22:53.726Z,86.20
2019-02-06T04:25:24.948Z,86.20
2019-02-06T04:27:57.772Z,86.20
2019-02-06T04:30:29.384Z,86.30
2019-02-06T04:33:02.651Z,86.30
2019-02-06T04:35:34.705Z,86.20
2019-02-06T04:38:05.933Z,86.20
2019-02-06T04:40:37.359Z,86.20
2019-02-06T04:43:08.609Z,86.20
2019-02-06T04:45:40.000Z,86.20
2019-02-06T04:48:11.440Z,86.20
2019-02-06T04:50:42.785Z,86.30
2019-02-06T04:53:15.432Z,86.30
2019-02-06T04:55:46.721Z,86.20
2019-02-06T04:58:18.071Z,86.10
2019-02-06T05:00:49.919Z,86.20
2019-02-06T05:03:38.710Z,86.10
2019-02-06T05:06:13.024Z,86.10
2019-02-06T05:08:44.405Z,86.10
2019-02-06T05:11:16.013Z,86.10
2019-02-06T05:13:47.381Z,86.10
2019-02-06T05:16:18.948Z,86.10
2019-02-06T05:18:53.576Z,86.10
2019-02-06T05:21:24.882Z,86.10
2019-02-06T05:23:56.165Z,86.10
2019-02-06T05:26:27.543Z,86.30
2019-02-06T05:29:00.528Z,86.10
2019-02-06T05:34:48.447Z,86.20
2019-02-06T05:37:31.753Z,87.50
2019-02-06T05:39:57.425Z,86.30
2019-02-06T05:42:28.749Z,86.30
2019-02-06T05:45:00.781Z,86.30
2019-02-06T05:47:35.749Z,86.40
2019-02-06T05:50:08.483Z,86.40
2019-02-06T05:52:53.000Z,86.50
2019-02-06T05:55:25.307Z,86.50
2019-02-06T05:58:08.916Z,86.50
2019-02-06T06:00:48.706Z,86.60
2019-02-06T06:03:29.446Z,86.60
2019-02-06T06:06:12.796Z,86.60
2019-02-06T06:08:50.257Z,86.60
2019-02-06T06:11:21.794Z,86.60
2019-02-06T06:13:53.135Z,86.60
2019-02-06T06:16:24.746Z,86.60
2019-02-06T06:18:56.164Z,86.70
2019-02-06T06:21:31.308Z,86.70
2019-02-06T06:24:09.094Z,87.10
2019-02-06T06:26:41.565Z,87.20
2019-02-06T06:29:20.154Z,87.30
2019-02-06T06:32:04.544Z,87.40
2019-02-06T06:34:40.145Z,87.30
2019-02-06T06:37:11.531Z,87.20
2019-02-06T06:39:42.932Z,87.20
2019-02-06T06:42:14.421Z,87.30
2019-02-06T06:44:54.425Z,87.30
2019-02-06T06:47:27.590Z,87.10
2019-02-06T06:49:58.958Z,87.10
2019-02-06T06:52:30.927Z,87.10
2019-02-06T06:55:03.861Z,87.10
2019-02-06T06:57:35.605Z,87.00
2019-02-06T07:00:09.377Z,87.00
2019-02-06T07:02:42.205Z,86.90
2019-02-06T07:05:13.750Z,86.90
2019-02-06T07:07:45.326Z,87.00
2019-02-06T07:13:16.614Z,87.00
2019-02-06T07:15:48.120Z,86.90
2019-02-06T07:18:19.881Z,86.80
2019-02-06T07:30:01.852Z,86.50
2019-02-06T07:32:36.325Z,86.50
2019-02-06T07:50:16.545Z,86.00
2019-02-06T07:52:47.875Z,85.70
2019-02-06T07:55:19.943Z,85.50
2019-02-06T07:57:51.405Z,85.30
2019-02-06T08:00:24.420Z,85.30
2019-02-06T08:02:57.251Z,85.10
2019-02-06T08:05:33.043Z,85.00
2019-02-06T08:08:04.639Z,85.10
2019-02-06T08:10:36.211Z,84.80
2019-02-06T08:13:07.685Z,84.70
2019-02-06T08:15:42.861Z,84.60
2019-02-06T08:18:17.193Z,84.50
2019-02-06T08:20:54.046Z,84.40
2019-02-06T08:23:25.689Z,84.20
2019-02-06T10:07:00.379Z,73.10
2019-02-06T13:52:19.493Z,63.00
2019-02-06T13:54:51.731Z,63.30
2019-02-06T13:57:38.506Z,63.70
2019-02-06T14:00:13.921Z,64.00
2019-02-06T14:02:53.094Z,64.20
2019-02-06T14:05:47.088Z,64.50
2019-02-06T14:08:54.580Z,64.50
2019-02-06T14:11:28.985Z,64.80
2019-02-06T14:14:04.469Z,65.10
2019-02-06T14:17:02.191Z,65.20
2019-02-06T14:19:28.595Z,65.50
2019-02-06T14:22:09.973Z,65.50
2019-02-06T14:25:17.357Z,65.60
2019-02-06T14:28:44.901Z,65.80
2019-02-06T14:32:17.809Z,65.80
2019-02-06T14:35:24.279Z,66.00
2019-02-06T14:38:27.706Z,66.20
2019-02-06T14:41:47.250Z,66.40
2019-02-06T14:44:42.503Z,66.60
2019-02-06T14:47:49.278Z,66.60
2019-02-06T14:50:36.193Z,67.10
2019-02-06T14:53:55.318Z,67.40
2019-02-06T14:57:00.051Z,67.80
2019-02-06T15:00:24.120Z,68.00
2019-02-06T15:03:54.840Z,68.50
2019-02-06T15:07:03.425Z,68.80
2019-02-06T15:10:15.531Z,69.30
2019-02-06T15:13:17.667Z,70.50
2019-02-06T15:16:17.797Z,69.80
2019-02-06T15:19:02.735Z,70.00
2019-02-06T15:22:07.415Z,70.20
2019-02-06T15:25:02.680Z,70.50
2019-02-06T15:28:19.719Z,70.90
2019-02-06T15:31:19.532Z,71.20
2019-02-06T15:34:16.554Z,71.70
2019-02-06T15:37:23.034Z,72.20
2019-02-06T15:40:25.528Z,72.60
2019-02-06T15:43:38.823Z,73.10
2019-02-06T15:46:30.840Z,75.40
2019-02-06T15:49:32.372Z,73.90
2019-02-06T15:52:21.557Z,74.10
2019-02-06T15:55:23.415Z,74.80
2019-02-06T15:58:27.310Z,76.10
2019-02-06T16:01:53.242Z,75.30
2019-02-06T16:05:19.818Z,75.90
2019-02-06T16:14:29.917Z,76.00
2019-02-06T16:17:33.889Z,76.70
2019-02-06T16:21:13.878Z,77.40
2019-02-06T16:24:33.902Z,90.60
2019-02-06T16:30:19.507Z,77.10
2019-02-06T16:33:14.533Z,77.80
2019-02-06T16:36:23.522Z,91.90
2019-02-06T16:39:30.798Z,78.80
2019-02-06T16:42:24.796Z,78.30
2019-02-06T16:45:28.973Z,78.70
2019-02-06T16:48:47.100Z,78.90
2019-02-06T16:51:35.762Z,79.10
2019-02-06T16:54:38.745Z,81.10
2019-02-06T16:57:48.849Z,78.80
2019-02-06T17:00:48.641Z,79.30
2019-02-06T17:03:56.664Z,79.50
2019-02-06T17:06:50.463Z,79.60
2019-02-06T17:09:37.834Z,79.70
2019-02-06T17:12:48.835Z,79.70
2019-02-06T17:16:12.985Z,80.00
2019-02-06T17:19:17.436Z,80.00
2019-02-06T17:22:20.061Z,80.20
2019-02-06T17:25:49.156Z,80.50
2019-02-06T17:28:55.459Z,80.10
2019-02-06T17:31:48.775Z,80.40
2019-02-06T17:34:38.238Z,94.20
2019-02-06T17:46:21.831Z,80.60
2019-02-06T17:49:41.715Z,80.90
2019-02-06T17:52:47.363Z,81.10
2019-02-06T17:55:20.730Z,95.00
2019-02-06T17:57:54.688Z,84.50
2019-02-06T18:00:36.345Z,96.70
2019-02-06T18:03:09.524Z,81.10
2019-02-06T18:05:41.812Z,81.80
2019-02-06T18:08:13.412Z,81.90
2019-02-06T18:13:16.988Z,81.40
2019-02-06T18:15:48.375Z,82.00
2019-02-06T18:18:19.745Z,97.40
2019-02-06T18:20:51.128Z,96.10
2019-02-06T18:33:25.712Z,93.60
2019-02-06T18:41:00.887Z,79.90
2019-02-06T18:43:33.531Z,80.50
2019-02-06T18:46:05.477Z,81.00
2019-02-06T18:48:38.425Z,81.10
2019-02-06T18:53:43.858Z,97.90
2019-02-06T18:56:15.434Z,98.70
2019-02-06T18:58:48.104Z,80.10
2019-02-06T19:01:21.441Z,80.50
2019-02-06T19:03:53.542Z,80.80
2019-02-06T19:06:24.893Z,80.80
2019-02-06T19:08:56.443Z,80.90
2019-02-06T19:11:28.958Z,81.00
2019-02-06T19:14:00.405Z,81.10
2019-02-06T19:16:31.770Z,81.10
2019-02-06T19:19:03.473Z,81.10
2019-02-06T19:21:37.651Z,81.00
2019-02-06T19:26:40.333Z,79.50
2019-02-06T19:29:12.810Z,80.20
2019-02-06T19:31:44.494Z,80.30
2019-02-06T19:34:15.853Z,80.50
2019-02-06T19:36:48.092Z,80.50
2019-02-06T19:39:19.549Z,80.50
2019-02-06T19:41:55.313Z,80.60
2019-02-06T19:44:28.147Z,80.60
2019-02-06T19:47:00.085Z,80.60
2019-02-06T19:49:31.534Z,80.60
2019-02-06T19:52:03.207Z,80.50
2019-02-06T19:54:35.153Z,80.50
2019-02-06T19:57:06.628Z,80.50
2019-02-06T19:59:38.761Z,80.50
2019-02-06T20:02:11.327Z,80.60
2019-02-06T20:04:42.808Z,80.60
2019-02-06T20:07:14.321Z,80.70
2019-02-06T20:09:46.705Z,80.70
2019-02-06T20:12:19.988Z,80.60
2019-02-06T20:14:51.526Z,80.70
2019-02-06T20:17:22.810Z,80.60
2019-02-06T20:20:14.570Z,80.60
2019-02-06T20:22:49.260Z,80.60
2019-02-06T20:25:20.677Z,81.00
2019-02-06T20:27:52.392Z,80.90
2019-02-06T20:30:25.913Z,81.20
2019-02-06T20:32:59.018Z,81.60
2019-02-06T20:35:30.306Z,82.00
2019-02-06T20:38:01.989Z,82.20
2019-02-06T20:40:34.835Z,82.20
2019-02-06T20:43:06.377Z,82.30
2019-02-06T20:45:40.194Z,82.40
2019-02-06T20:48:11.802Z,82.30
2019-02-06T20:50:43.733Z,82.10
2019-02-06T20:53:14.996Z,82.10
2019-02-06T20:55:46.323Z,81.90
2019-02-06T20:58:17.609Z,81.70
2019-02-06T21:00:49.199Z,81.60
2019-02-06T21:03:22.597Z,81.40
2019-02-06T21:05:57.189Z,81.20
2019-02-06T21:08:28.684Z,81.20
2019-02-06T21:10:59.956Z,81.00
2019-02-06T21:13:34.034Z,80.80
2019-02-06T21:16:05.728Z,80.70
2019-02-06T21:18:37.058Z,80.60
2019-02-06T21:21:08.404Z,80.60
2019-02-06T21:23:40.448Z,80.50
2019-02-06T21:26:11.802Z,80.50
2019-02-06T21:28:43.149Z,80.50
2019-02-06T21:31:17.582Z,80.40
2019-02-06T21:33:48.874Z,80.30
2019-02-06T21:36:21.002Z,80.10
2019-02-06T21:38:52.855Z,80.10
2019-02-06T21:41:32.485Z,80.00
2019-02-06T21:44:03.967Z,79.90
2019-02-06T21:46:35.225Z,79.80
2019-02-06T21:49:06.598Z,79.80
2019-02-06T21:51:37.994Z,79.70
2019-02-06T21:54:09.504Z,79.60
2019-02-06T21:56:41.033Z,79.70
2019-02-06T21:59:12.610Z,79.70
2019-02-06T22:01:44.747Z,79.70
2019-02-06T22:04:16.045Z,79.70
2019-02-06T22:06:47.393Z,79.70
2019-02-06T22:09:19.087Z,79.70
2019-02-06T22:16:51.594Z,78.90
2019-02-06T22:19:23.161Z,79.50
2019-02-06T22:21:54.426Z,79.60
2019-02-06T22:24:26.332Z,79.70
2019-02-06T22:26:57.705Z,79.70
2019-02-06T22:29:28.965Z,79.60
2019-02-06T22:34:31.074Z,91.10
2019-02-06T22:37:02.909Z,90.90
2019-02-06T22:42:05.706Z,92.50
2019-02-06T22:44:37.384Z,89.30
2019-02-06T22:47:08.816Z,90.20
2019-02-06T22:49:40.108Z,79.60
2019-02-06T22:52:11.568Z,87.30
2019-02-06T22:57:17.573Z,89.90
2019-02-06T22:59:48.865Z,79.60
2019-02-06T23:02:20.213Z,79.60
2019-02-06T23:04:52.005Z,79.60
2019-02-06T23:12:27.294Z,78.70
2019-02-06T23:14:57.822Z,86.60
2019-02-06T23:17:30.737Z,91.10
2019-02-06T23:22:33.203Z,91.20
2019-02-06T23:25:05.549Z,79.40
2019-02-06T23:27:37.038Z,79.40
2019-02-06T23:30:10.775Z,79.50
2019-02-06T23:32:43.191Z,79.50
2019-02-06T23:35:14.674Z,79.60
2019-02-06T23:45:19.367Z,91.60
2019-02-06T23:47:59.542Z,92.10
2019-02-06T23:50:41.407Z,79.70
2019-02-06T23:53:28.097Z,91.10
2019-02-06T23:58:36.649Z,86.90
